createdAt,value
2022-09-20T00:00:08.763Z,95
2022-09-20T00:01:09.331Z,95
2022-09-20T00:02:09.778Z,95
2022-09-20T00:03:10.173Z,95
2022-09-20T00:04:11.001Z,95
2022-09-20T00:05:11.466Z,95
2022-09-20T00:06:11.884Z,95
2022-09-20T00:07:12.276Z,95
2022-09-20T00:08:12.675Z,95
2022-09-20T00:09:13.433Z,95
2022-09-20T00:10:13.841Z,95
2022-09-20T00:11:14.238Z,95
2022-09-20T00:12:14.627Z,95
2022-09-20T00:13:15.022Z,95
2022-09-20T00:14:15.718Z,95
2022-09-20T00:15:16.107Z,95
2022-09-20T00:16:16.517Z,95
2022-09-20T00:17:16.983Z,95
2022-09-20T00:18:17.368Z,95
2022-09-20T00:19:18.157Z,95
2022-09-20T00:20:18.571Z,95
2022-09-20T00:21:18.971Z,95
2022-09-20T00:22:19.332Z,95
2022-09-20T00:23:19.688Z,95
2022-09-20T00:24:20.361Z,95
2022-09-20T00:25:20.757Z,95
2022-09-20T00:26:21.161Z,95
2022-09-20T00:27:21.588Z,95
2022-09-20T00:28:21.971Z,95
2022-09-20T00:29:22.708Z,95
2022-09-20T00:30:23.105Z,95
2022-09-20T00:31:23.620Z,95
2022-09-20T00:32:24.024Z,95
2022-09-20T00:33:24.397Z,95
2022-09-20T00:34:25.084Z,95
2022-09-20T00:35:25.444Z,95
2022-09-20T00:36:25.804Z,95
2022-09-20T00:37:26.203Z,95
2022-09-20T00:38:26.605Z,95
2022-09-20T00:39:27.014Z,95
2022-09-20T00:40:27.456Z,95
2022-09-20T00:41:27.860Z,95
2022-09-20T00:42:28.221Z,95
2022-09-20T00:43:28.614Z,95
2022-09-20T00:44:29.028Z,95
2022-09-20T00:45:29.508Z,95
2022-09-20T00:46:29.959Z,95
2022-09-20T00:47:30.351Z,95
2022-09-20T00:48:30.730Z,95
2022-09-20T00:49:31.137Z,95
2022-09-20T00:50:31.544Z,95
2022-09-20T00:51:31.914Z,95
2022-09-20T00:52:32.279Z,95
2022-09-20T00:53:32.677Z,95
2022-09-20T00:54:33.075Z,95
2022-09-20T00:55:33.476Z,95
2022-09-20T00:56:33.837Z,95
2022-09-20T00:57:34.237Z,95
2022-09-20T00:58:35.028Z,95
2022-09-20T00:59:35.388Z,95
2022-09-20T01:00:35.782Z,95
2022-09-20T01:01:36.215Z,95
2022-09-20T01:02:36.761Z,95
2022-09-20T01:03:37.559Z,95
2022-09-20T01:04:38.237Z,95
2022-09-20T01:05:38.595Z,95
2022-09-20T01:06:38.969Z,95
2022-09-20T01:07:39.360Z,95
2022-09-20T01:08:40.117Z,95
2022-09-20T01:09:40.518Z,95
2022-09-20T01:10:40.895Z,95
2022-09-20T01:11:41.285Z,95
2022-09-20T01:12:41.683Z,95
2022-09-20T01:13:42.370Z,95
2022-09-20T01:14:42.776Z,95
2022-09-20T01:15:43.172Z,95
2022-09-20T01:16:43.646Z,95
2022-09-20T01:17:44.092Z,95
2022-09-20T01:18:44.775Z,95
2022-09-20T01:19:45.553Z,95
2022-09-20T01:20:45.910Z,95
2022-09-20T01:21:46.301Z,95
2022-09-20T01:22:46.688Z,95
2022-09-20T01:23:47.426Z,95
2022-09-20T01:24:47.832Z,95
2022-09-20T01:25:48.231Z,95
2022-09-20T01:26:48.597Z,95
2022-09-20T01:27:48.958Z,95
2022-09-20T01:28:49.647Z,95
2022-09-20T01:29:50.015Z,95
2022-09-20T01:30:50.415Z,95
2022-09-20T01:31:50.894Z,95
2022-09-20T01:32:51.353Z,95
2022-09-20T01:33:52.117Z,95
2022-09-20T01:34:52.846Z,95
2022-09-20T01:35:53.231Z,95
2022-09-20T01:36:53.591Z,95
2022-09-20T01:37:53.948Z,95
2022-09-20T01:38:54.734Z,95
2022-09-20T01:39:55.102Z,95
2022-09-20T01:40:55.489Z,95
2022-09-20T01:41:55.882Z,95
2022-09-20T01:42:56.283Z,95
2022-09-20T01:43:57.107Z,95
2022-09-20T01:44:57.485Z,95
2022-09-20T01:45:57.936Z,95
2022-09-20T01:46:58.399Z,95
2022-09-20T01:47:58.790Z,95
2022-09-20T01:48:59.482Z,95
2022-09-20T01:50:00.198Z,95
2022-09-20T01:51:00.594Z,95
2022-09-20T01:52:00.991Z,95
2022-09-20T01:53:01.355Z,95
2022-09-20T01:54:02.090Z,95
2022-09-20T01:55:02.473Z,95
2022-09-20T01:56:02.867Z,95
2022-09-20T01:57:03.272Z,95
2022-09-20T01:58:03.673Z,95
2022-09-20T02:00:13.135Z,95
2022-09-20T02:01:13.642Z,95
2022-09-20T02:02:14.169Z,95
2022-09-20T02:03:14.613Z,95
2022-09-20T02:04:15.389Z,95
2022-09-20T02:05:16.098Z,95
2022-09-20T02:06:16.489Z,95
2022-09-20T02:07:16.888Z,95
2022-09-20T02:08:17.260Z,95
2022-09-20T02:09:17.986Z,95
2022-09-20T02:10:18.364Z,95
2022-09-20T02:11:18.757Z,95
2022-09-20T02:12:19.162Z,95
2022-09-20T02:13:19.554Z,95
2022-09-20T02:14:20.263Z,95
2022-09-20T02:15:20.660Z,95
2022-09-20T02:16:21.117Z,95
2022-09-20T02:17:21.581Z,95
2022-09-20T02:18:21.964Z,95
2022-09-20T02:19:22.760Z,95
2022-09-20T02:20:23.492Z,95
2022-09-20T02:21:23.897Z,95
2022-09-20T02:22:24.309Z,95
2022-09-20T02:23:24.678Z,95
2022-09-20T02:24:25.373Z,95
2022-09-20T02:25:25.773Z,95
2022-09-20T02:26:26.147Z,95
2022-09-20T02:27:26.520Z,95
2022-09-20T02:28:26.907Z,95
2022-09-20T02:29:27.317Z,95
2022-09-20T02:30:27.678Z,95
2022-09-20T02:31:28.143Z,95
2022-09-20T02:32:28.594Z,95
2022-09-20T02:33:29.004Z,95
2022-09-20T02:34:29.409Z,95
2022-09-20T02:35:30.129Z,95
2022-09-20T02:36:30.529Z,95
2022-09-20T02:37:30.909Z,95
2022-09-20T02:38:31.306Z,95
2022-09-20T02:39:31.691Z,95
2022-09-20T02:40:32.097Z,95
2022-09-20T02:41:32.565Z,95
2022-09-20T02:42:32.923Z,95
2022-09-20T02:43:33.281Z,95
2022-09-20T02:44:33.735Z,95
2022-09-20T02:45:34.197Z,95
2022-09-20T02:46:34.604Z,95
2022-09-20T02:47:34.999Z,95
2022-09-20T02:48:35.359Z,95
2022-09-20T02:49:36.155Z,95
2022-09-20T02:50:36.922Z,95
2022-09-20T02:51:37.319Z,95
2022-09-20T02:52:37.687Z,95
2022-09-20T02:53:38.084Z,95
2022-09-20T02:54:38.859Z,95
2022-09-20T02:55:39.249Z,95
2022-09-20T02:56:39.654Z,95
2022-09-20T02:57:40.059Z,95
2022-09-20T02:58:40.456Z,95
2022-09-20T02:59:41.140Z,95
2022-09-20T03:00:41.548Z,95
2022-09-20T03:01:42.005Z,95
2022-09-20T03:02:42.517Z,95
2022-09-20T03:03:42.948Z,95
2022-09-20T03:04:43.672Z,95
2022-09-20T03:05:44.087Z,95
2022-09-20T03:06:44.443Z,95
2022-09-20T03:07:44.834Z,95
2022-09-20T03:08:45.233Z,95
2022-09-20T03:09:46.035Z,95
2022-09-20T03:10:46.392Z,95
2022-09-20T03:11:46.748Z,95
2022-09-20T03:12:47.144Z,95
2022-09-20T03:13:47.544Z,95
2022-09-20T03:14:48.326Z,95
2022-09-20T03:15:48.684Z,95
2022-09-20T03:16:52.081Z,95
2022-09-20T03:17:52.929Z,96
2022-09-20T03:18:53.321Z,96
2022-09-20T03:19:54.016Z,96
2022-09-20T03:20:54.703Z,96
2022-09-20T03:21:55.085Z,95
2022-09-20T03:22:55.474Z,95
2022-09-20T03:23:55.959Z,95
2022-09-20T03:24:56.831Z,95
2022-09-20T03:25:57.233Z,95
2022-09-20T03:26:57.641Z,95
2022-09-20T03:27:58.054Z,95
2022-09-20T03:28:58.456Z,95
2022-09-20T03:29:59.206Z,95
2022-09-20T03:30:59.578Z,95
2022-09-20T03:32:00.081Z,95
2022-09-20T03:33:00.506Z,95
2022-09-20T03:34:00.888Z,95
2022-09-20T03:35:01.684Z,95
2022-09-20T03:36:02.385Z,96
2022-09-20T03:37:02.787Z,96
2022-09-20T03:38:03.144Z,95
2022-09-20T03:39:03.504Z,95
2022-09-20T03:40:04.318Z,95
2022-09-20T03:41:04.785Z,95
2022-09-20T03:42:05.149Z,95
2022-09-20T03:43:05.553Z,95
2022-09-20T03:44:06.067Z,95
2022-09-20T03:45:06.856Z,95
2022-09-20T03:46:07.299Z,95
2022-09-20T03:47:07.703Z,95
2022-09-20T03:48:08.065Z,95
2022-09-20T03:49:08.454Z,95
2022-09-20T03:50:09.242Z,95
2022-09-20T03:51:09.977Z,95
2022-09-20T03:52:10.333Z,95
2022-09-20T03:53:10.688Z,95
2022-09-20T03:54:11.083Z,95
2022-09-20T03:55:11.828Z,95
2022-09-20T03:56:12.219Z,95
2022-09-20T03:57:12.615Z,95
2022-09-20T03:58:12.986Z,95
2022-09-20T03:59:13.373Z,95
2022-09-20T04:00:14.164Z,95
2022-09-20T04:01:14.666Z,95
2022-09-20T04:02:15.171Z,95
2022-09-20T04:03:15.589Z,95
2022-09-20T04:04:15.995Z,95
2022-09-20T04:05:16.704Z,95
2022-09-20T04:06:17.487Z,95
2022-09-20T04:07:17.878Z,95
2022-09-20T04:08:18.267Z,95
2022-09-20T04:09:18.695Z,95
2022-09-20T04:10:19.396Z,95
2022-09-20T04:11:19.753Z,95
2022-09-20T04:12:20.134Z,95
2022-09-20T04:13:20.647Z,95
2022-09-20T04:14:21.012Z,95
2022-09-20T04:15:21.820Z,95
2022-09-20T04:16:22.250Z,95
2022-09-20T04:17:22.655Z,95
2022-09-20T04:18:23.029Z,95
2022-09-20T04:19:23.429Z,95
2022-09-20T04:20:24.260Z,95
2022-09-20T04:21:24.867Z,95
2022-09-20T04:22:25.259Z,95
2022-09-20T04:23:25.646Z,95
2022-09-20T04:24:26.029Z,95
2022-09-20T04:25:26.862Z,95
2022-09-20T04:26:27.266Z,95
2022-09-20T04:27:27.623Z,95
2022-09-20T04:28:27.994Z,95
2022-09-20T04:29:28.381Z,95
2022-09-20T04:30:29.097Z,95
2022-09-20T04:31:29.582Z,95
2022-09-20T04:32:30.045Z,95
2022-09-20T04:33:30.410Z,95
2022-09-20T04:34:30.815Z,95
2022-09-20T04:35:31.600Z,95
2022-09-20T04:36:32.347Z,95
2022-09-20T04:37:32.783Z,95
2022-09-20T04:38:33.170Z,95
2022-09-20T04:39:33.528Z,95
2022-09-20T04:40:34.386Z,95
2022-09-20T04:41:34.852Z,95
2022-09-20T04:42:35.296Z,95
2022-09-20T04:43:35.687Z,95
2022-09-20T04:44:36.080Z,95
2022-09-20T04:45:36.996Z,95
2022-09-20T04:46:37.414Z,95
2022-09-20T04:47:37.816Z,95
2022-09-20T04:48:38.214Z,95
2022-09-20T04:49:38.603Z,95
2022-09-20T04:50:39.411Z,95
2022-09-20T04:51:40.193Z,95
2022-09-20T04:52:40.609Z,95
2022-09-20T04:53:40.999Z,95
2022-09-20T04:54:41.385Z,95
2022-09-20T04:55:42.131Z,95
2022-09-20T04:56:42.516Z,95
2022-09-20T04:57:42.928Z,95
2022-09-20T04:58:43.297Z,95
2022-09-20T04:59:43.707Z,95
2022-09-20T05:00:44.455Z,95
2022-09-20T05:01:44.964Z,95
2022-09-20T05:02:45.576Z,95
2022-09-20T05:03:46.061Z,95
2022-09-20T05:04:46.478Z,95
2022-09-20T05:05:47.284Z,95
2022-09-20T05:06:47.969Z,95
2022-09-20T05:07:48.355Z,95
2022-09-20T05:08:48.772Z,95
2022-09-20T05:09:49.173Z,95
2022-09-20T05:10:49.886Z,95
2022-09-20T05:11:50.293Z,95
2022-09-20T05:12:50.665Z,95
2022-09-20T05:13:51.021Z,95
2022-09-20T05:14:51.412Z,95
2022-09-20T05:15:52.117Z,95
2022-09-20T05:16:52.571Z,95
2022-09-20T05:17:53.043Z,95
2022-09-20T05:18:53.454Z,95
2022-09-20T05:19:53.888Z,95
2022-09-20T05:20:54.718Z,95
2022-09-20T05:21:55.422Z,95
2022-09-20T05:22:55.778Z,95
2022-09-20T05:23:56.189Z,95
2022-09-20T05:24:56.592Z,95
2022-09-20T05:25:57.341Z,95
2022-09-20T05:26:57.736Z,96
2022-09-20T05:27:58.104Z,96
2022-09-20T05:28:58.487Z,96
2022-09-20T05:30:00.252Z,95
2022-09-20T05:31:03.801Z,95
2022-09-20T05:32:04.243Z,95
2022-09-20T05:33:04.648Z,95
2022-09-20T05:34:05.053Z,95
2022-09-20T05:35:05.413Z,95
2022-09-20T05:36:06.088Z,95
2022-09-20T05:37:06.903Z,95
2022-09-20T05:38:07.296Z,95
2022-09-20T05:39:07.676Z,95
2022-09-20T05:40:08.114Z,95
2022-09-20T05:41:08.883Z,95
2022-09-20T05:42:09.269Z,95
2022-09-20T05:43:09.686Z,95
2022-09-20T05:44:10.084Z,95
2022-09-20T05:45:10.464Z,95
2022-09-20T05:46:11.255Z,95
2022-09-20T05:47:11.633Z,95
2022-09-20T05:48:12.018Z,95
2022-09-20T05:49:12.434Z,95
2022-09-20T05:50:12.843Z,95
2022-09-20T05:51:13.649Z,95
2022-09-20T05:52:14.441Z,95
2022-09-20T05:53:14.845Z,95
2022-09-20T05:54:15.207Z,95
2022-09-20T05:55:15.602Z,96
2022-09-20T05:56:16.383Z,95
2022-09-20T05:57:16.755Z,95
2022-09-20T05:58:17.109Z,95
2022-09-20T05:59:17.503Z,95
2022-09-20T06:00:17.868Z,95
2022-09-20T06:01:18.582Z,95
2022-09-20T06:02:18.982Z,95
2022-09-20T06:03:19.378Z,95
2022-09-20T06:04:19.739Z,95
2022-09-20T06:05:20.122Z,95
2022-09-20T06:06:20.912Z,95
2022-09-20T06:07:21.667Z,95
2022-09-20T06:08:22.040Z,95
2022-09-20T06:09:22.442Z,95
2022-09-20T06:10:22.799Z,95
2022-09-20T06:11:23.548Z,95
2022-09-20T06:12:23.956Z,95
2022-09-20T06:13:24.370Z,95
2022-09-20T06:14:24.769Z,95
2022-09-20T06:15:25.156Z,95
2022-09-20T06:16:25.979Z,95
2022-09-20T06:17:26.404Z,95
2022-09-20T06:18:26.793Z,95
2022-09-20T06:19:27.159Z,95
2022-09-20T06:20:27.551Z,95
2022-09-20T06:21:28.275Z,95
2022-09-20T06:22:28.939Z,95
2022-09-20T06:23:29.309Z,95
2022-09-20T06:24:29.677Z,95
2022-09-20T06:25:30.061Z,95
2022-09-20T06:26:30.782Z,95
2022-09-20T06:27:31.192Z,95
2022-09-20T06:28:31.597Z,95
2022-09-20T06:29:31.961Z,95
2022-09-20T06:30:32.376Z,95
2022-09-20T06:31:33.193Z,95
2022-09-20T06:32:33.559Z,95
2022-09-20T06:33:33.945Z,95
2022-09-20T06:34:34.338Z,95
2022-09-20T06:35:34.752Z,95
2022-09-20T06:36:35.463Z,95
2022-09-20T06:37:36.139Z,95
2022-09-20T06:38:36.536Z,95
2022-09-20T06:39:36.927Z,95
2022-09-20T06:40:37.366Z,95
2022-09-20T06:41:38.080Z,95
2022-09-20T06:42:38.496Z,96
2022-09-20T06:43:38.863Z,96
2022-09-20T06:44:39.243Z,96
2022-09-20T06:45:39.655Z,96
2022-09-20T06:46:40.495Z,96
2022-09-20T06:47:40.908Z,96
2022-09-20T06:48:41.291Z,96
2022-09-20T06:49:41.647Z,96
2022-09-20T06:50:42.036Z,96
2022-09-20T06:51:42.786Z,96
2022-09-20T06:52:43.473Z,96
2022-09-20T06:53:43.849Z,96
2022-09-20T06:54:44.209Z,96
2022-09-20T06:55:44.602Z,95
2022-09-20T06:56:45.414Z,95
2022-09-20T06:57:45.805Z,95
2022-09-20T06:58:46.159Z,95
2022-09-20T06:59:46.526Z,95
2022-09-20T07:00:46.959Z,95
2022-09-20T07:01:47.768Z,95
2022-09-20T07:02:48.190Z,95
2022-09-20T07:03:48.591Z,95
2022-09-20T07:04:48.993Z,96
2022-09-20T07:05:49.379Z,96
2022-09-20T07:06:50.146Z,96
2022-09-20T07:07:50.852Z,96
2022-09-20T07:08:51.250Z,96
2022-09-20T07:09:51.617Z,96
2022-09-20T07:10:52.001Z,96
2022-09-20T07:11:52.768Z,96
2022-09-20T07:12:53.130Z,96
2022-09-20T07:13:53.518Z,96
2022-09-20T07:14:53.923Z,96
2022-09-20T07:15:54.321Z,95
2022-09-20T07:16:54.800Z,95
2022-09-20T07:17:55.214Z,95
2022-09-20T07:18:55.614Z,95
2022-09-20T07:19:56.016Z,95
2022-09-20T07:20:56.387Z,95
2022-09-20T07:21:57.183Z,95
2022-09-20T07:22:57.892Z,95
2022-09-20T07:23:58.268Z,95
2022-09-20T07:24:58.672Z,95
2022-09-20T07:25:59.063Z,95
2022-09-20T07:26:59.812Z,95
2022-09-20T07:28:00.224Z,95
2022-09-20T07:29:00.584Z,95
2022-09-20T07:30:00.971Z,95
2022-09-20T07:31:01.330Z,95
2022-09-20T07:32:02.257Z,95
2022-09-20T07:33:02.713Z,95
2022-09-20T07:34:03.113Z,95
2022-09-20T07:35:03.503Z,95
2022-09-20T07:36:03.899Z,95
2022-09-20T07:37:04.723Z,95
2022-09-20T07:38:05.482Z,95
2022-09-20T07:39:05.838Z,95
2022-09-20T07:40:06.250Z,95
2022-09-20T07:41:06.681Z,95
2022-09-20T07:42:07.362Z,95
2022-09-20T07:43:07.766Z,95
2022-09-20T07:44:08.127Z,95
2022-09-20T07:45:08.487Z,95
2022-09-20T07:46:08.906Z,95
2022-09-20T07:47:09.628Z,95
2022-09-20T07:48:10.019Z,95
2022-09-20T07:49:10.379Z,95
2022-09-20T07:50:10.767Z,95
2022-09-20T07:51:11.140Z,95
2022-09-20T07:52:11.947Z,95
2022-09-20T07:53:12.753Z,95
2022-09-20T07:54:13.149Z,95
2022-09-20T07:55:13.547Z,95
2022-09-20T07:56:13.928Z,95
2022-09-20T07:57:14.683Z,95
2022-09-20T07:58:15.068Z,95
2022-09-20T07:59:15.432Z,95
2022-09-20T08:00:15.844Z,95
2022-09-20T08:01:16.280Z,95
2022-09-20T08:02:17.205Z,95
2022-09-20T08:03:17.656Z,95
2022-09-20T08:04:18.061Z,95
2022-09-20T08:05:18.483Z,95
2022-09-20T08:06:18.836Z,95
2022-09-20T08:07:19.654Z,95
2022-09-20T08:08:20.355Z,95
2022-09-20T08:09:20.743Z,95
2022-09-20T08:10:21.250Z,95
2022-09-20T08:11:21.738Z,95
2022-09-20T08:14:07.793Z,95
2022-09-20T08:15:11.928Z,95
2022-09-20T08:16:12.572Z,95
2022-09-20T08:17:13.010Z,95
2022-09-20T08:18:13.803Z,95
2022-09-20T08:19:14.183Z,95
2022-09-20T08:20:14.562Z,95
2022-09-20T08:21:14.947Z,95
2022-09-20T08:22:15.341Z,95
2022-09-20T08:23:23.498Z,95
2022-09-20T08:24:24.719Z,95
2022-09-20T08:25:25.091Z,95
2022-09-20T08:26:25.497Z,95
2022-09-20T08:27:25.901Z,95
2022-09-20T08:28:26.586Z,95
2022-09-20T08:29:26.978Z,95
2022-09-20T08:30:27.799Z,95
2022-09-20T08:31:28.416Z,95
2022-09-20T08:32:28.875Z,95
2022-09-20T08:33:29.629Z,95
2022-09-20T08:34:30.031Z,95
2022-09-20T08:35:30.391Z,95
2022-09-20T08:36:35.933Z,95
2022-09-20T08:37:36.988Z,95
2022-09-20T08:40:08.158Z,95
2022-09-20T08:41:08.582Z,95
2022-09-20T08:42:08.999Z,95
2022-09-20T08:43:09.400Z,94
2022-09-20T08:44:10.222Z,94
2022-09-20T08:45:10.628Z,94
2022-09-20T08:46:11.192Z,94
2022-09-20T08:47:11.593Z,94
2022-09-20T08:48:14.228Z,94
2022-09-20T08:49:15.274Z,94
2022-09-20T08:50:17.552Z,94
2022-09-20T08:51:23.013Z,94
2022-09-20T08:52:23.624Z,94
2022-09-20T08:53:24.027Z,94
2022-09-20T08:54:24.618Z,94
2022-09-20T08:55:24.984Z,94
2022-09-20T08:56:25.385Z,94
2022-09-20T08:57:25.779Z,94
2022-09-20T08:58:26.140Z,94
2022-09-20T08:59:26.533Z,94
2022-09-20T09:00:26.945Z,94
2022-09-20T09:01:27.364Z,94
2022-09-20T09:02:27.828Z,94
2022-09-20T09:03:28.244Z,94
2022-09-20T09:04:28.638Z,94
2022-09-20T09:05:29.000Z,94
2022-09-20T09:06:29.357Z,94
2022-09-20T09:07:29.737Z,94
2022-09-20T09:08:30.130Z,94
2022-09-20T09:09:30.599Z,94
2022-09-20T09:10:31.003Z,94
2022-09-20T09:11:31.367Z,94
2022-09-20T09:12:31.748Z,94
2022-09-20T09:13:32.164Z,94
2022-09-20T09:14:32.571Z,94
2022-09-20T09:15:32.975Z,94
2022-09-20T09:16:34.949Z,94
2022-09-20T09:17:36.267Z,94
2022-09-20T09:18:36.664Z,94
2022-09-20T09:19:37.397Z,94
2022-09-20T09:20:37.761Z,94
2022-09-20T09:21:38.143Z,94
2022-09-20T09:22:38.553Z,94
2022-09-20T09:23:38.961Z,94
2022-09-20T09:24:39.762Z,94
2022-09-20T09:25:40.162Z,94
2022-09-20T09:26:40.560Z,94
2022-09-20T09:27:40.922Z,94
2022-09-20T09:28:41.310Z,94
2022-09-20T09:29:42.066Z,94
2022-09-20T09:30:42.430Z,94
2022-09-20T09:31:42.890Z,94
2022-09-20T09:32:43.324Z,94
2022-09-20T09:33:43.711Z,94
2022-09-20T09:34:44.509Z,94
2022-09-20T09:35:44.906Z,94
2022-09-20T09:36:45.305Z,94
2022-09-20T09:37:45.701Z,94
2022-09-20T09:38:46.197Z,94
2022-09-20T09:39:47.023Z,94
2022-09-20T09:40:47.428Z,94
2022-09-20T09:41:47.842Z,94
2022-09-20T09:42:48.238Z,94
2022-09-20T09:43:48.606Z,94
2022-09-20T09:44:49.286Z,94
2022-09-20T09:45:49.743Z,94
2022-09-20T09:46:50.161Z,94
2022-09-20T09:47:50.564Z,94
2022-09-20T09:48:50.969Z,94
2022-09-20T09:49:53.085Z,94
2022-09-20T09:50:54.963Z,94
2022-09-20T09:51:55.329Z,94
2022-09-20T09:52:55.696Z,94
2022-09-20T09:53:56.091Z,94
2022-09-20T09:54:56.853Z,94
2022-09-20T09:55:57.254Z,94
2022-09-20T09:56:57.618Z,94
2022-09-20T09:57:58.009Z,94
2022-09-20T09:58:58.426Z,94
2022-09-20T09:59:59.509Z,94
2022-09-20T10:01:00.529Z,94
2022-09-20T10:02:00.995Z,94
2022-09-20T10:03:01.418Z,94
2022-09-20T10:04:01.777Z,94
2022-09-20T10:05:02.558Z,94
2022-09-20T10:06:02.949Z,94
2022-09-20T10:07:03.341Z,94
2022-09-20T10:08:03.742Z,94
2022-09-20T10:09:04.135Z,94
2022-09-20T10:10:04.899Z,94
2022-09-20T10:11:05.298Z,94
2022-09-20T10:12:05.682Z,94
2022-09-20T10:13:06.047Z,94
2022-09-20T10:14:06.419Z,94
2022-09-20T10:15:07.224Z,94
2022-09-20T10:16:07.696Z,94
2022-09-20T10:17:08.113Z,94
2022-09-20T10:18:08.482Z,94
2022-09-20T10:19:08.883Z,94
2022-09-20T10:20:09.738Z,94
2022-09-20T10:21:10.136Z,94
2022-09-20T10:22:10.528Z,94
2022-09-20T10:23:45.033Z,94
2022-09-20T10:24:49.799Z,94
2022-09-20T10:25:52.142Z,94
2022-09-20T10:26:52.541Z,94
2022-09-20T10:27:52.933Z,94
2022-09-20T10:28:53.311Z,94
2022-09-20T10:29:53.709Z,94
2022-09-20T10:30:54.516Z,94
2022-09-20T10:31:54.995Z,94
2022-09-20T10:32:55.373Z,94
2022-09-20T10:33:55.750Z,94
2022-09-20T10:34:56.113Z,94
2022-09-20T10:35:56.922Z,94
2022-09-20T10:36:57.292Z,94
2022-09-20T10:37:57.686Z,94
2022-09-20T10:38:58.077Z,94
2022-09-20T10:39:58.511Z,94
2022-09-20T10:40:59.223Z,94
2022-09-20T10:41:59.583Z,93
2022-09-20T10:42:59.950Z,93
2022-09-20T10:44:04.279Z,93
2022-09-20T10:45:05.661Z,93
2022-09-20T10:46:30.981Z,93
2022-09-20T10:47:32.100Z,93
2022-09-20T10:48:32.557Z,93
2022-09-20T10:49:32.953Z,93
2022-09-20T10:50:33.316Z,93
2022-09-20T10:51:34.121Z,93
2022-09-20T10:52:34.498Z,93
2022-09-20T10:53:34.914Z,93
2022-09-20T10:54:35.272Z,93
2022-09-20T10:55:36.093Z,93
2022-09-20T10:56:36.748Z,93
2022-09-20T10:57:37.153Z,93
2022-09-20T10:58:37.555Z,93
2022-09-20T10:59:37.959Z,93
2022-09-20T11:00:38.354Z,93
2022-09-20T11:01:39.187Z,93
2022-09-20T11:02:39.720Z,93
2022-09-20T11:03:40.106Z,93
2022-09-20T11:04:40.483Z,93
2022-09-20T11:05:40.884Z,93
2022-09-20T11:06:41.655Z,93
2022-09-20T11:07:42.029Z,93
2022-09-20T11:08:42.424Z,93
2022-09-20T11:09:42.823Z,93
2022-09-20T11:10:43.638Z,93
2022-09-20T11:11:44.412Z,93
2022-09-20T11:12:44.813Z,93
2022-09-20T11:13:45.204Z,93
2022-09-20T11:14:45.589Z,93
2022-09-20T11:15:45.970Z,93
2022-09-20T11:16:46.684Z,92
2022-09-20T11:17:47.102Z,92
2022-09-20T11:18:47.490Z,92
2022-09-20T11:19:47.890Z,92
2022-09-20T11:20:48.293Z,92
2022-09-20T11:21:49.073Z,92
2022-09-20T11:22:49.437Z,92
2022-09-20T11:23:49.816Z,92
2022-09-20T11:24:50.206Z,92
2022-09-20T11:25:51.008Z,92
2022-09-20T11:26:51.769Z,92
2022-09-20T11:27:52.166Z,92
2022-09-20T11:28:52.599Z,92
2022-09-20T11:29:53.008Z,92
2022-09-20T11:30:53.373Z,92
2022-09-20T11:31:54.226Z,92
2022-09-20T11:32:54.642Z,92
2022-09-20T11:33:55.060Z,92
2022-09-20T11:34:55.467Z,92
2022-09-20T11:35:55.856Z,92
2022-09-20T11:36:56.571Z,92
2022-09-20T11:37:56.964Z,92
2022-09-20T11:38:57.352Z,92
2022-09-20T11:39:57.768Z,92
2022-09-20T11:40:58.498Z,92
2022-09-20T11:41:59.164Z,92
2022-09-20T11:42:59.560Z,92
2022-09-20T11:43:59.944Z,92
2022-09-20T11:45:00.319Z,92
2022-09-20T11:46:00.715Z,91
2022-09-20T11:47:01.543Z,91
2022-09-20T11:48:01.943Z,91
2022-09-20T11:49:02.298Z,91
2022-09-20T11:50:02.708Z,91
2022-09-20T11:51:03.110Z,91
2022-09-20T11:52:03.813Z,91
2022-09-20T11:53:04.171Z,91
2022-09-20T11:54:04.717Z,91
2022-09-20T11:55:05.232Z,91
2022-09-20T11:56:05.915Z,91
2022-09-20T11:57:06.694Z,91
2022-09-20T11:58:07.092Z,91
2022-09-20T11:59:07.446Z,91
2022-09-20T12:00:07.858Z,91
2022-09-20T12:01:08.256Z,91
2022-09-20T12:02:09.069Z,91
2022-09-20T12:03:09.670Z,91
2022-09-20T12:04:30.594Z,91
2022-09-20T12:05:32.002Z,91
2022-09-20T12:06:32.391Z,91
2022-09-20T12:07:33.102Z,91
2022-09-20T12:08:33.486Z,91
2022-09-20T12:09:33.855Z,91
2022-09-20T12:10:34.255Z,91
2022-09-20T12:11:34.988Z,90
2022-09-20T12:12:35.782Z,90
2022-09-20T12:13:36.217Z,90
2022-09-20T12:14:36.622Z,90
2022-09-20T12:15:37.017Z,90
2022-09-20T12:16:37.478Z,90
2022-09-20T12:17:38.299Z,90
2022-09-20T12:18:38.656Z,90
2022-09-20T12:19:39.051Z,90
2022-09-20T12:20:39.464Z,90
2022-09-20T12:21:39.853Z,90
2022-09-20T12:22:40.576Z,90
2022-09-20T12:23:40.970Z,90
2022-09-20T12:24:45.302Z,90
2022-09-20T12:25:46.077Z,90
2022-09-20T12:26:46.816Z,90
2022-09-20T12:27:47.505Z,90
2022-09-20T12:28:47.910Z,90
2022-09-20T12:29:48.307Z,90
2022-09-20T12:30:48.712Z,90
2022-09-20T12:31:49.164Z,90
2022-09-20T12:32:50.037Z,90
2022-09-20T12:33:50.399Z,90
2022-09-20T12:34:50.809Z,89
2022-09-20T12:35:51.205Z,89
2022-09-20T12:36:51.574Z,89
2022-09-20T12:37:52.329Z,89
2022-09-20T12:38:52.734Z,89
2022-09-20T12:39:53.145Z,89
2022-09-20T12:40:53.508Z,89
2022-09-20T12:41:54.331Z,89
2022-09-20T12:42:55.066Z,89
2022-09-20T12:43:55.554Z,89
2022-09-20T12:44:55.993Z,89
2022-09-20T12:45:59.894Z,89
2022-09-20T12:47:03.383Z,89
2022-09-20T12:48:04.031Z,89
2022-09-20T12:49:04.503Z,89
2022-09-20T12:50:04.927Z,89
2022-09-20T12:51:05.324Z,89
2022-09-20T12:52:05.728Z,89
2022-09-20T12:53:06.476Z,89
2022-09-20T12:54:06.832Z,89
2022-09-20T12:55:10.912Z,88
2022-09-20T12:56:11.682Z,88
2022-09-20T12:57:12.440Z,88
2022-09-20T12:58:13.146Z,88
2022-09-20T12:59:13.505Z,88
2022-09-20T13:00:13.900Z,88
2022-09-20T13:01:14.812Z,88
2022-09-20T13:02:15.341Z,88
2022-09-20T13:03:16.213Z,88
2022-09-20T13:04:16.572Z,88
2022-09-20T13:05:16.965Z,88
2022-09-20T13:06:17.326Z,88
2022-09-20T13:07:17.717Z,88
2022-09-20T13:08:18.550Z,88
2022-09-20T13:09:18.946Z,87
2022-09-20T13:10:19.346Z,87
2022-09-20T13:11:19.706Z,87
2022-09-20T13:12:20.478Z,87
2022-09-20T13:13:21.244Z,87
2022-09-20T13:14:21.672Z,87
2022-09-20T13:15:22.051Z,87
2022-09-20T13:16:22.536Z,87
2022-09-20T13:17:23.026Z,87
2022-09-20T13:18:23.798Z,87
2022-09-20T13:19:24.180Z,86
2022-09-20T13:20:24.548Z,86
2022-09-20T13:21:24.948Z,86
2022-09-20T13:22:25.346Z,86
2022-09-20T13:23:26.095Z,86
2022-09-20T13:24:26.456Z,86
2022-09-20T13:25:26.868Z,86
2022-09-20T13:26:27.253Z,86
2022-09-20T13:27:28.018Z,86
2022-09-20T13:28:28.736Z,86
2022-09-20T13:29:29.105Z,86
2022-09-20T13:30:29.506Z,85
2022-09-20T13:31:29.961Z,85
2022-09-20T13:32:30.366Z,85
2022-09-20T13:33:31.178Z,85
2022-09-20T13:34:31.589Z,85
2022-09-20T13:35:31.957Z,85
2022-09-20T13:36:32.329Z,85
2022-09-20T13:37:32.721Z,85
2022-09-20T13:38:33.448Z,85
2022-09-20T13:39:33.858Z,84
2022-09-20T13:40:34.357Z,84
2022-09-20T13:41:34.800Z,84
2022-09-20T13:42:35.574Z,84
2022-09-20T13:43:36.379Z,83
2022-09-20T13:44:36.762Z,83
2022-09-20T13:45:37.179Z,83
2022-09-20T13:46:37.587Z,83
2022-09-20T13:47:37.940Z,83
2022-09-20T13:48:38.656Z,83
2022-09-20T13:49:39.013Z,82
2022-09-20T13:50:44.893Z,82
2022-09-20T13:51:46.820Z,82
2022-09-20T13:52:47.181Z,82
2022-09-20T13:53:47.975Z,81
2022-09-20T13:54:48.383Z,81
2022-09-20T13:55:48.775Z,81
2022-09-20T13:56:49.166Z,81
2022-09-20T13:57:49.973Z,80
2022-09-20T13:58:50.735Z,80
2022-09-20T13:59:51.123Z,80
2022-09-20T14:00:51.555Z,79
2022-09-20T14:01:52.058Z,79
2022-09-20T14:02:52.499Z,79
2022-09-20T14:03:53.294Z,79
2022-09-20T14:04:53.680Z,79
2022-09-20T14:05:54.075Z,78
2022-09-20T14:06:54.481Z,78
2022-09-20T14:07:54.858Z,78
2022-09-20T14:08:55.620Z,78
2022-09-20T14:09:55.993Z,77
2022-09-20T14:10:56.373Z,77
2022-09-20T14:11:56.770Z,77
2022-09-20T14:12:57.532Z,77
2022-09-20T14:13:58.306Z,76
2022-09-20T14:14:58.717Z,76
2022-09-20T14:15:59.120Z,76
2022-09-20T14:16:59.586Z,76
2022-09-20T14:17:59.979Z,76
2022-09-20T14:19:00.632Z,75
2022-09-20T14:20:01.017Z,75
2022-09-20T14:21:01.378Z,75
2022-09-20T14:22:01.747Z,75
2022-09-20T14:23:02.114Z,74
2022-09-20T14:24:02.795Z,74
2022-09-20T14:25:03.210Z,74
2022-09-20T14:26:03.611Z,74
2022-09-20T14:27:04.005Z,73
2022-09-20T14:28:04.755Z,73
2022-09-20T14:29:05.166Z,73